Time;durP1;ratioP1;P1;durP2;ratioP2;P2;SDS_P1;SDS_P2;PMS_P1;PMS_P2;Temp;Humidity;BMP_temperature;BMP_pressure;BME280_temperature;BME280_humidity;BME280_pressure;Samples;Min_cycle;Max_cycle;Signal;HPM_P1;HPM_P2
2023/12/12 00:00:29;;;;;;;15.43;2.20;;;;;;;;;;4994348;28;20218;-84
2023/12/12 00:02:56;;;;;;;13.23;2.20;;;11.70;99.90;;;;;;4997411;28;20613;-85
2023/12/12 00:05:22;;;;;;;14.70;2.40;;;;;;;;;;5013252;28;20181;-85
2023/12/12 00:07:48;;;;;;;13.87;2.17;;;;;;;;;;5013082;28;20712;-84
2023/12/12 00:10:15;;;;;;;13.70;2.27;;;;;;;;;;5012147;28;20186;-85
2023/12/12 00:12:41;;;;;;;10.93;2.37;;;;;;;;;;5013618;28;20640;-84
2023/12/12 00:15:07;;;;;;;19.87;2.47;;;;;;;;;;5013399;28;20173;-84
2023/12/12 00:17:33;;;;;;;13.50;2.20;;;;;;;;;;5013429;28;20258;-85
2023/12/12 00:19:59;;;;;;;13.87;2.30;;;;;;;;;;5013705;28;20171;-84
2023/12/12 00:22:25;;;;;;;14.03;2.53;;;;;;;;;;5013735;28;20174;-84
2023/12/12 00:24:51;;;;;;;14.73;2.00;;;;;;;;;;5013095;28;20656;-83
2023/12/12 00:27:17;;;;;;;12.97;1.90;;;;;;;;;;5012991;28;20174;-83
2023/12/12 00:29:45;;;;;;;17.63;2.50;;;;;;;;;;5013034;28;20427;-83
2023/12/12 00:32:11;;;;;;;15.23;2.30;;;;;;;;;;5012926;28;20274;-83
2023/12/12 00:34:37;;;;;;;15.87;2.33;;;;;;;;;;5011577;28;20166;-83
2023/12/12 00:37:03;;;;;;;15.33;2.23;;;;;;;;;;5013206;28;20277;-83
2023/12/12 00:39:29;;;;;;;14.33;2.53;;;;;;;;;;5013698;28;20217;-83
2023/12/12 00:41:55;;;;;;;13.23;2.27;;;;;;;;;;5012394;28;20360;-83
2023/12/12 00:44:21;;;;;;;16.43;2.17;;;;;;;;;;5011360;28;20170;-83
2023/12/12 00:46:48;;;;;;;12.07;2.17;;;;;;;;;;5004773;28;20179;-83
2023/12/12 00:49:14;;;;;;;14.83;2.83;;;;;;;;;;4993179;28;20178;-84
2023/12/12 00:51:40;;;;;;;15.63;1.80;;;;;;;;;;5007696;28;20692;-83
2023/12/12 00:54:06;;;;;;;10.30;1.77;;;;;;;;;;5012592;28;20170;-84
2023/12/12 00:56:32;;;;;;;11.40;1.97;;;;;;;;;;5012608;28;20663;-82
2023/12/12 00:58:58;;;;;;;11.27;2.00;;;;;;;;;;5011162;28;20186;-82
2023/12/12 01:01:24;;;;;;;2.60;0.77;;;;;;;;;;5012928;28;20289;-86
2023/12/12 01:03:50;;;;;;;4.30;0.83;;;11.80;99.90;;;;;;4999043;28;20206;-85
2023/12/12 01:06:23;;;;;;;3.77;0.77;;;11.80;99.90;;;;;;4993464;28;20168;-86
2023/12/12 01:08:49;;;;;;;2.83;0.63;;;;;;;;;;4994058;28;20266;-86
2023/12/12 01:11:16;;;;;;;5.87;1.00;;;;;;;;;;4994098;28;20217;-85
2023/12/12 01:13:42;;;;;;;1.90;0.40;;;;;;;;;;4994052;28;20179;-85
2023/12/12 01:16:08;;;;;;;2.07;0.63;;;;;;;;;;4993578;28;20183;-86
2023/12/12 01:18:34;;;;;;;2.47;0.60;;;;;;;;;;5011615;28;20175;-86
2023/12/12 01:21:02;;;;;;;4.03;0.83;;;11.20;99.90;;;;;;5011226;28;20242;-85
2023/12/12 01:23:28;;;;;;;2.47;0.43;;;;;;;;;;5011040;28;20254;-85
2023/12/12 01:25:54;;;;;;;2.27;0.30;;;;;;;;;;5015751;28;20160;-87
2023/12/12 01:28:20;;;;;;;2.83;0.50;;;;;;;;;;4996131;28;20255;-88
2023/12/12 01:30:46;;;;;;;2.10;0.30;;;;;;;;;;4992054;28;20278;-83
2023/12/12 01:33:12;;;;;;;2.83;0.40;;;;;;;;;;4992727;28;20168;-86
2023/12/12 01:35:39;;;;;;;2.10;0.47;;;;;;;;;;4991520;28;20237;-86
2023/12/12 01:38:05;;;;;;;2.40;0.30;;;;;;;;;;4992578;28;20226;-86
2023/12/12 01:40:31;;;;;;;0.77;0.20;;;;;;;;;;5008018;28;20608;-86
2023/12/12 01:43:06;;;;;;;0.40;0.10;;;10.90;99.90;;;;;;5012033;28;20236;-84
2023/12/12 01:45:32;;;;;;;1.47;0.20;;;;;;;;;;5011123;28;20180;-86
2023/12/12 01:47:58;;;;;;;2.00;0.20;;;;;;;;;;5011138;28;20245;-85
2023/12/12 01:50:24;;;;;;;0.83;0.10;;;;;;;;;;5011257;28;20722;-85
2023/12/12 01:52:50;;;;;;;0.53;0.10;;;;;;;;;;5011981;28;20644;-87
2023/12/12 01:55:16;;;;;;;1.93;0.13;;;;;;;;;;5011125;28;20174;-87
2023/12/12 01:57:42;;;;;;;1.40;0.10;;;10.50;99.90;;;;;;5011633;28;20216;-88
2023/12/12 02:00:08;;;;;;;0.77;0.20;;;;;;;;;;5011031;28;20202;-87
2023/12/12 02:02:34;;;;;;;0.60;0.10;;;;;;;;;;5012265;28;20185;-88
2023/12/12 02:05:01;;;;;;;0.40;0.13;;;;;;;;;;5011158;28;20205;-88
2023/12/12 02:07:28;;;;;;;1.93;0.17;;;10.40;99.90;;;;;;5012205;28;20210;-88
2023/12/12 02:09:54;;;;;;;1.47;0.10;;;;;;;;;;5012201;28;20166;-88
2023/12/12 02:12:22;;;;;;;1.10;0.20;;;10.30;99.90;;;;;;5012470;28;20182;-89
2023/12/12 02:14:48;;;;;;;1.03;0.10;;;;;;;;;;5009622;28;20747;-88
2023/12/12 02:17:14;;;;;;;0.20;0.10;;;10.20;99.90;;;;;;4992787;28;20684;-89
2023/12/12 02:19:40;;;;;;;0.20;0.03;;;;;;;;;;5012128;28;20166;-88
2023/12/12 02:22:06;;;;;;;1.13;0.30;;;;;;;;;;5012419;28;20221;-88
2023/12/12 02:24:32;;;;;;;0.83;0.17;;;;;;;;;;5012696;28;20265;-88
2023/12/12 02:26:58;;;;;;;1.00;0.23;;;;;;;;;;5018792;28;20193;-85
2023/12/12 02:29:24;;;;;;;0.93;0.23;;;;;;;;;;5028633;28;20652;-87
2023/12/12 02:31:50;;;;;;;1.37;0.20;;;;;;;;;;5011495;28;20185;-86
2023/12/12 02:34:16;;;;;;;1.70;0.23;;;;;;;;;;5011837;28;20178;-86
2023/12/12 02:36:44;;;;;;;2.60;0.20;;;;;;;;;;5011666;28;20617;-85
2023/12/12 02:39:11;;;;;;;0.93;0.20;;;;;;;;;;5011952;28;20170;-87
2023/12/12 02:41:37;;;;;;;0.60;0.10;;;;;;;;;;5011667;28;20213;-85
2023/12/12 02:44:04;;;;;;;0.30;0.20;;;;;;;;;;5011091;28;20302;-85
2023/12/12 02:46:30;;;;;;;0.47;0.10;;;;;;;;;;5011362;28;20206;-84
2023/12/12 02:48:56;;;;;;;0.50;0.20;;;;;;;;;;5011321;28;20198;-84
2023/12/12 02:51:22;;;;;;;1.33;0.30;;;;;;;;;;5011077;28;20190;-85
2023/12/12 02:53:48;;;;;;;0.20;0.10;;;;;;;;;;5011663;28;20167;-87
2023/12/12 02:56:14;;;;;;;2.10;0.20;;;;;;;;;;5010688;28;20179;-88
2023/12/12 02:58:40;;;;;;;4.03;0.40;;;;;;;;;;5011717;28;20179;-85
2023/12/12 03:01:06;;;;;;;0.40;0.10;;;;;;;;;;5010768;28;20257;-85
2023/12/12 03:03:32;;;;;;;0.73;0.20;;;;;;;;;;5011301;28;20669;-86
2023/12/12 03:05:58;;;;;;;2.87;0.30;;;;;;;;;;5010276;28;20213;-87
2023/12/12 03:08:24;;;;;;;2.13;0.20;;;;;;;;;;5011323;28;20171;-87
2023/12/12 03:10:50;;;;;;;0.73;0.20;;;;;;;;;;5011616;28;20175;-87
2023/12/12 03:13:16;;;;;;;0.73;0.10;;;;;;;;;;5013338;28;20167;-88
2023/12/12 03:15:42;;;;;;;1.40;0.30;;;;;;;;;;5014661;28;20683;-88
2023/12/12 03:18:08;;;;;;;1.73;0.20;;;;;;;;;;5014944;28;20224;-89
2023/12/12 03:20:34;;;;;;;1.30;0.40;;;;;;;;;;5015212;28;20206;-87
2023/12/12 03:23:00;;;;;;;2.33;0.33;;;;;;;;;;5008863;28;20176;-88
2023/12/12 03:25:26;;;;;;;4.57;0.50;;;;;;;;;;4996045;28;20186;-87
2023/12/12 03:27:52;;;;;;;0.63;0.20;;;;;;;;;;4994425;28;20725;-86
2023/12/12 03:30:18;;;;;;;2.20;0.40;;;;;;;;;;4994741;28;20179;-86
2023/12/12 03:32:44;;;;;;;8.73;0.93;;;;;;;;;;4995263;28;20683;-87
2023/12/12 03:35:10;;;;;;;2.93;0.50;;;;;;;;;;5001726;28;20177;-88
2023/12/12 03:37:36;;;;;;;2.03;0.40;;;;;;;;;;5022931;28;20151;-86
2023/12/12 03:40:03;;;;;;;2.77;0.40;;;;;;;;;;5038097;28;20166;-86
2023/12/12 03:42:29;;;;;;;2.67;0.50;;;;;;;;;;5035931;28;20294;-85
2023/12/12 03:44:55;;;;;;;3.27;0.60;;;;;;;;;;5035922;28;20179;-86
2023/12/12 03:47:22;;;;;;;3.77;0.60;;;;;;;;;;5029981;28;20284;-85
2023/12/12 03:49:48;;;;;;;3.03;0.43;;;;;;;;;;5014906;28;20521;-87
2023/12/12 03:52:14;;;;;;;4.43;0.50;;;;;;;;;;5013464;28;20229;-86
2023/12/12 03:54:40;;;;;;;2.43;0.50;;;;;;;;;;5012622;28;20175;-85
2023/12/12 03:57:06;;;;;;;2.60;0.43;;;;;;;;;;5012445;28;20571;-86
2023/12/12 03:59:32;;;;;;;2.33;0.40;;;;;;;;;;5014426;28;20210;-86
2023/12/12 04:01:58;;;;;;;3.57;0.33;;;;;;;;;;5013863;28;20214;-86
2023/12/12 04:04:24;;;;;;;3.70;0.63;;;;;;;;;;5013781;28;20170;-86
2023/12/12 04:06:50;;;;;;;2.80;0.50;;;;;;;;;;5013199;28;20174;-87
2023/12/12 04:09:15;;;;;;;2.93;0.43;;;9.60;99.90;;;;;;5013957;28;20209;-87
2023/12/12 04:11:41;;;;;;;5.97;0.80;;;;;;;;;;5012579;28;20220;-83
2023/12/12 04:14:07;;;;;;;3.17;0.50;;;;;;;;;;5013215;28;20619;-84
2023/12/12 04:16:34;;;;;;;2.73;0.50;;;;;;;;;;5013827;28;20181;-86
2023/12/12 04:19:00;;;;;;;5.33;0.50;;;;;;;;;;5013539;28;20645;-87
2023/12/12 04:21:26;;;;;;;2.30;0.53;;;;;;;;;;5011680;28;20214;-86
2023/12/12 04:23:52;;;;;;;3.20;0.50;;;;;;;;;;5012957;28;20217;-82
2023/12/12 04:26:17;;;;;;;4.60;0.60;;;9.60;99.90;;;;;;5012626;28;20175;-83
2023/12/12 04:28:43;;;;;;;3.40;0.40;;;;;;;;;;5012879;28;20170;-84
2023/12/12 04:31:16;;;;;;;5.23;0.90;;;9.50;99.90;;;;;;5011788;28;20182;-84
2023/12/12 04:33:42;;;;;;;1.63;0.40;;;;;;;;;;5013030;28;20636;-85
2023/12/12 04:36:12;;;;;;;6.30;0.80;;;9.40;99.90;;;;;;5013307;28;20236;-85
2023/12/12 04:38:38;;;;;;;6.13;0.80;;;;;;;;;;5012898;28;20179;-86
2023/12/12 04:41:05;;;;;;;6.30;0.70;;;;;;;;;;5012832;28;20297;-86
2023/12/12 04:43:31;;;;;;;5.27;0.80;;;;;;;;;;5012697;28;20696;-86
2023/12/12 04:45:57;;;;;;;5.37;0.70;;;;;;;;;;5011652;28;20185;-85
2023/12/12 04:48:23;;;;;;;5.00;0.70;;;;;;;;;;5013127;28;20659;-86
2023/12/12 04:50:49;;;;;;;7.17;0.83;;;;;;;;;;5012827;28;20532;-85
2023/12/12 04:53:16;;;;;;;8.80;0.93;;;9.30;99.90;;;;;;5013303;28;20190;-88
2023/12/12 04:55:42;;;;;;;6.10;1.10;;;;;;;;;;5013034;28;20265;-86
2023/12/12 04:58:08;;;;;;;7.20;0.97;;;;;;;;;;5012223;28;20194;-81
2023/12/12 05:00:34;;;;;;;4.27;0.70;;;;;;;;;;5012051;28;20218;-81
2023/12/12 05:03:00;;;;;;;5.57;0.77;;;;;;;;;;5011701;28;20178;-81
2023/12/12 05:05:26;;;;;;;5.53;1.00;;;;;;;;;;5012001;28;20179;-78
2023/12/12 05:07:52;;;;;;;6.33;0.80;;;;;;;;;;5010550;28;20603;-80
2023/12/12 05:10:18;;;;;;;5.50;0.83;;;;;;;;;;5012115;28;20214;-85
2023/12/12 05:12:44;;;;;;;6.10;1.00;;;;;;;;;;5012437;28;20207;-85
2023/12/12 05:15:11;;;;;;;4.97;0.70;;;;;;;;;;5012331;28;20214;-84
2023/12/12 05:17:37;;;;;;;5.33;1.00;;;;;;;;;;5012393;28;20175;-88
2023/12/12 05:20:04;;;;;;;4.33;0.70;;;;;;;;;;5016790;28;20604;-87
2023/12/12 05:22:30;;;;;;;7.07;0.97;;;;;;;;;;5013852;28;20189;-86
2023/12/12 05:24:56;;;;;;;2.07;0.40;;;;;;;;;;4996435;28;20180;-84
2023/12/12 05:27:22;;;;;;;5.70;0.90;;;;;;;;;;4992715;28;20171;-84
2023/12/12 05:29:48;;;;;;;4.27;1.00;;;;;;;;;;4993085;28;20218;-85
2023/12/12 05:32:14;;;;;;;6.13;1.03;;;;;;;;;;4991460;28;20167;-84
2023/12/12 05:34:40;;;;;;;9.27;1.17;;;;;;;;;;4990881;28;20179;-85
2023/12/12 05:37:08;;;;;;;8.50;0.90;;;;;;;;;;5009698;28;20653;-85
2023/12/12 05:39:34;;;;;;;6.87;1.00;;;;;;;;;;5012740;28;20253;-85
2023/12/12 05:42:01;;;;;;;8.53;1.30;;;;;;;;;;5011937;28;20218;-84
2023/12/12 05:44:27;;;;;;;13.37;1.60;;;;;;;;;;5012160;28;20174;-85
2023/12/12 05:46:53;;;;;;;6.60;1.20;;;;;;;;;;5011784;28;20683;-85
2023/12/12 05:49:21;;;;;;;8.30;0.90;;;;;;;;;;5012441;28;20201;-85
2023/12/12 05:51:47;;;;;;;8.87;1.10;;;;;;;;;;5011717;28;20178;-82
2023/12/12 05:54:13;;;;;;;12.17;1.27;;;;;;;;;;5010949;28;20174;-82
2023/12/12 05:56:43;;;;;;;6.97;0.73;;;;;;;;;;5011427;28;20186;-82
2023/12/12 05:59:09;;;;;;;4.90;0.70;;;;;;;;;;5013661;28;20174;-81
2023/12/12 06:01:35;;;;;;;245.07;13.07;;;;;;;;;;5013884;28;20210;-81
2023/12/12 06:04:01;;;;;;;5.53;1.00;;;9.50;99.90;;;;;;5016613;28;20174;-82
2023/12/12 06:06:27;;;;;;;5.53;1.03;;;;;;;;;;5017538;28;20169;-81
2023/12/12 06:08:53;;;;;;;5.83;0.73;;;;;;;;;;5011527;28;20201;-82
2023/12/12 06:11:21;;;;;;;5.10;1.00;;;;;;;;;;5009924;28;20651;-82
2023/12/12 06:13:47;;;;;;;7.57;1.20;;;;;;;;;;5000638;28;20201;-83
2023/12/12 06:16:13;;;;;;;5.07;1.27;;;;;;;;;;5011447;28;20178;-83
2023/12/12 06:18:39;;;;;;;7.47;1.10;;;;;;;;;;5010110;28;20174;-83
2023/12/12 06:21:05;;;;;;;8.70;1.27;;;;;;;;;;5010886;28;20237;-83
2023/12/12 06:23:31;;;;;;;9.20;1.27;;;;;;;;;;5010798;28;20675;-84
2023/12/12 06:25:57;;;;;;;9.60;2.10;;;;;;;;;;5011310;28;20178;-84
2023/12/12 06:28:23;;;;;;;7.00;1.50;;;;;;;;;;5011453;28;20281;-83
2023/12/12 06:30:49;;;;;;;7.10;1.40;;;;;;;;;;5010902;28;20175;-84
2023/12/12 06:33:16;;;;;;;7.33;1.00;;;;;;;;;;5009595;28;20198;-83
2023/12/12 06:35:42;;;;;;;55.00;3.20;;;;;;;;;;5010857;28;20201;-83
2023/12/12 06:38:09;;;;;;;11.40;1.47;;;;;;;;;;5010758;28;20171;-83
2023/12/12 06:40:35;;;;;;;15.80;1.70;;;;;;;;;;5009807;28;20254;-84
2023/12/12 06:43:01;;;;;;;6.13;1.43;;;;;;;;;;5009158;28;20230;-83
2023/12/12 06:45:26;;;;;;;14.43;1.83;;;9.30;99.90;;;;;;4991920;28;20168;-84
2023/12/12 06:47:52;;;;;;;9.40;1.60;;;;;;;;;;4995206;28;20556;-85
2023/12/12 06:50:18;;;;;;;52.30;3.10;;;;;;;;;;4995513;28;20702;-85
2023/12/12 06:52:44;;;;;;;18.67;1.53;;;;;;;;;;4995308;28;20175;-83
2023/12/12 06:55:10;;;;;;;7.00;1.70;;;;;;;;;;4998042;28;20661;-92
2023/12/12 06:57:37;;;;;;;10.43;1.80;;;;;;;;;;5015928;28;20210;-91
2023/12/12 07:00:06;;;;;;;13.57;2.07;;;9.40;99.90;;;;;;5016170;28;20308;-91
2023/12/12 07:02:32;;;;;;;15.37;2.23;;;;;;;;;;5015562;28;20708;-88
2023/12/12 07:04:58;;;;;;;17.77;2.47;;;;;;;;;;5016237;28;20174;-89
2023/12/12 07:07:24;;;;;;;10.97;2.00;;;;;;;;;;5014708;28;20559;-87
2023/12/12 07:09:51;;;;;;;15.17;2.63;;;;;;;;;;5015172;28;20181;-87
2023/12/12 07:12:17;;;;;;;15.40;2.70;;;;;;;;;;5015056;28;20185;-87
2023/12/12 07:14:43;;;;;;;17.90;2.20;;;;;;;;;;5012044;28;20179;-93
2023/12/12 07:17:09;;;;;;;13.57;2.03;;;;;;;;;;5008952;28;20190;-92
2023/12/12 07:19:35;;;;;;;15.03;2.27;;;;;;;;;;5015764;28;20217;-93
2023/12/12 07:22:02;;;;;;;16.23;2.33;;;;;;;;;;5016124;28;20244;-92
2023/12/12 07:24:28;;;;;;;15.60;2.10;;;;;;;;;;5014619;28;20179;-92
2023/12/12 07:26:54;;;;;;;20.97;4.10;;;;;;;;;;5015206;28;20206;-89
2023/12/12 07:29:22;;;;;;;15.43;2.67;;;;;;;;;;5015169;28;20238;-88
2023/12/12 07:31:48;;;;;;;13.70;2.90;;;;;;;;;;5013992;28;20175;-85
2023/12/12 07:34:14;;;;;;;16.93;3.03;;;;;;;;;;5014041;28;20214;-85
2023/12/12 07:36:41;;;;;;;16.37;2.83;;;;;;;;;;5009609;28;20178;-84
2023/12/12 07:39:07;;;;;;;20.13;3.20;;;;;;;;;;5014048;28;20216;-84
2023/12/12 07:41:33;;;;;;;19.40;2.70;;;;;;;;;;5005442;28;20692;-86
2023/12/12 07:43:59;;;;;;;21.37;2.70;;;10.10;99.90;;;;;;4994214;28;20230;-83
2023/12/12 07:46:25;;;;;;;22.37;3.03;;;;;;;;;;4994218;28;20182;-85
2023/12/12 07:48:51;;;;;;;21.87;2.97;;;;;;;;;;4994317;28;20317;-84
2023/12/12 07:51:17;;;;;;;13.77;2.33;;;;;;;;;;4994667;28;20231;-83
2023/12/12 07:53:43;;;;;;;25.73;3.33;;;;;;;;;;4995601;28;20706;-82
2023/12/12 07:56:09;;;;;;;19.40;3.03;;;;;;;;;;5012535;28;20301;-83
2023/12/12 07:58:36;;;;;;;20.70;3.57;;;;;;;;;;5013362;28;20174;-86
2023/12/12 08:01:03;;;;;;;17.10;2.60;;;;;;;;;;5013000;28;20524;-83
2023/12/12 08:03:30;;;;;;;23.90;3.47;;;;;;;;;;5001369;28;20175;-84
2023/12/12 08:05:56;;;;;;;17.43;2.63;;;;;;;;;;5005486;28;20233;-85
2023/12/12 08:08:21;;;;;;;19.57;3.00;;;10.30;99.90;;;;;;4995293;28;20257;-87
2023/12/12 08:10:47;;;;;;;26.13;3.10;;;;;;;;;;4993066;28;20514;-79
2023/12/12 08:13:13;;;;;;;18.00;3.17;;;;;;;;;;4993676;28;20202;-79
2023/12/12 08:15:39;;;;;;;25.37;2.70;;;;;;;;;;4993712;28;20230;-81
2023/12/12 08:18:05;;;;;;;22.23;3.23;;;;;;;;;;5008002;28;20183;-80
2023/12/12 08:20:31;;;;;;;21.10;3.73;;;;;;;;;;5016226;28;20295;-85
2023/12/12 08:22:57;;;;;;;16.40;3.10;;;;;;;;;;5023946;28;20193;-81
2023/12/12 08:25:23;;;;;;;19.90;2.50;;;;;;;;;;5023244;28;20185;-80
2023/12/12 08:27:49;;;;;;;26.53;3.33;;;;;;;;;;5015942;28;20536;-83
2023/12/12 08:30:15;;;;;;;18.60;2.67;;;10.80;99.90;;;;;;5015112;28;20185;-83
2023/12/12 08:32:41;;;;;;;17.83;3.10;;;;;;;;;;4993285;28;20185;-83
2023/12/12 08:35:07;;;;;;;19.43;3.00;;;10.80;99.90;;;;;;4993786;28;20638;-87
2023/12/12 08:37:33;;;;;;;20.00;2.83;;;;;;;;;;4992617;28;20187;-85
2023/12/12 08:40:00;;;;;;;19.90;2.80;;;;;;;;;;4993795;28;20175;-89
2023/12/12 08:42:26;;;;;;;16.13;2.53;;;;;;;;;;5011334;28;20230;-84
2023/12/12 08:44:53;;;;;;;17.97;2.63;;;;;;;;;;5012436;28;20317;-84
2023/12/12 08:47:19;;;;;;;19.00;3.30;;;;;;;;;;5011514;28;20316;-84
2023/12/12 08:49:45;;;;;;;19.87;2.60;;;;;;;;;;5012602;28;20262;-78
2023/12/12 08:52:11;;;;;;;20.00;3.03;;;;;;;;;;5011884;28;20175;-80
2023/12/12 08:54:37;;;;;;;16.17;2.87;;;11.20;99.90;;;;;;5010984;28;20180;-83
2023/12/12 08:57:04;;;;;;;17.97;3.23;;;11.20;99.90;;;;;;5012167;28;20166;-90
2023/12/12 08:59:30;;;;;;;22.07;3.13;;;;;;;;;;5012577;28;20193;-84
2023/12/12 09:01:56;;;;;;;20.17;2.87;;;;;;;;;;5013324;28;20217;-82
2023/12/12 09:04:22;;;;;;;20.07;3.00;;;;;;;;;;5014936;28;20202;-90
2023/12/12 09:06:48;;;;;;;25.27;3.20;;;;;;;;;;5012884;28;20178;-92
2023/12/12 09:09:15;;;;;;;21.97;3.43;;;;;;;;;;5013293;28;20629;-91
2023/12/12 09:11:41;;;;;;;16.27;2.60;;;;;;;;;;5012314;28;20240;-91
2023/12/12 09:14:08;;;;;;;24.87;3.47;;;;;;;;;;5012515;28;20182;-92
2023/12/12 09:16:34;;;;;;;21.70;3.47;;;;;;;;;;5013623;28;20629;-85
2023/12/12 09:19:00;;;;;;;22.37;2.97;;;;;;;;;;5014629;28;21509;-91
2023/12/12 09:21:26;;;;;;;20.03;2.93;;;;;;;;;;5015918;28;20225;-89
2023/12/12 09:23:52;;;;;;;21.23;2.93;;;;;;;;;;5012582;28;20208;-92
2023/12/12 09:26:18;;;;;;;21.57;3.33;;;;;;;;;;5018766;28;20178;-94
2023/12/12 09:28:44;;;;;;;14.27;2.63;;;;;;;;;;5017090;28;20206;-93
2023/12/12 09:31:11;;;;;;;18.13;3.43;;;;;;;;;;5015470;28;20226;-92
2023/12/12 09:33:37;;;;;;;17.17;3.00;;;;;;;;;;5014507;28;20237;-89
2023/12/12 09:36:04;;;;;;;18.67;2.80;;;;;;;;;;5015602;28;20178;-92
2023/12/12 09:38:30;;;;;;;23.80;2.83;;;;;;;;;;5014799;28;20177;-83
2023/12/12 09:40:56;;;;;;;17.70;2.70;;;11.70;99.90;;;;;;5008825;28;20260;-95
2023/12/12 09:43:26;;;;;;;17.27;2.97;;;11.90;99.90;;;;;;5015465;28;20219;-89
2023/12/12 09:45:56;;;;;;;16.77;2.97;;;12.00;99.90;;;;;;5017341;28;20178;-92
2023/12/12 09:48:23;;;;;;;16.30;2.40;;;;;;;;;;5019440;28;20197;-95
2023/12/12 09:50:50;;;;;;;16.37;2.63;;;;;;;;;;5022611;28;20186;-93
2023/12/12 09:53:17;;;;;;;24.93;2.90;;;;;;;;;;5019522;28;20182;-95
2023/12/12 09:55:45;;;;;;;13.83;2.10;;;11.80;99.90;;;;;;5018866;28;20178;-89
2023/12/12 09:58:11;;;;;;;15.97;2.73;;;;;;;;;;5014926;28;20171;-93
2023/12/12 10:00:37;;;;;;;28.43;3.57;;;;;;;;;;5016317;28;20677;-86
2023/12/12 10:03:05;;;;;;;17.27;2.83;;;12.00;99.90;;;;;;5010214;28;20652;-84
2023/12/12 10:05:33;;;;;;;19.67;2.70;;;12.20;99.90;;;;;;5010930;28;20273;-86
2023/12/12 10:08:05;;;;;;;17.23;2.90;;;12.40;99.90;;;;;;5010660;28;20197;-87
2023/12/12 10:10:31;;;;;;;18.10;2.93;;;;;;;;;;5011319;28;20336;-88
2023/12/12 10:12:57;;;;;;;19.10;2.97;;;;;;;;;;5011661;28;20656;-86
2023/12/12 10:15:25;;;;;;;20.90;3.10;;;13.00;99.90;;;;;;5013088;28;20229;-89
2023/12/12 10:17:58;;;;;;;16.10;2.90;;;13.00;99.90;;;;;;5013169;28;20245;-93
2023/12/12 10:20:28;;;;;;;14.50;3.67;;;13.40;99.90;;;;;;4993011;28;20182;-88
2023/12/12 10:22:57;;;;;;;14.00;2.60;;;13.40;99.90;;;;;;5015436;28;20183;-88
2023/12/12 10:25:23;;;;;;;18.50;3.33;;;13.00;99.90;;;;;;5018839;28;20202;-84
2023/12/12 10:27:52;;;;;;;16.33;2.80;;;;;;;;;;5031311;28;20237;-91
2023/12/12 10:30:20;;;;;;;23.50;3.57;;;;;;;;;;5031514;28;20190;-91
2023/12/12 10:32:46;;;;;;;20.33;4.07;;;;;;;;;;5017623;28;20644;-85
2023/12/12 10:35:12;;;;;;;13.93;2.60;;;;;;;;;;5016697;28;20170;-85
2023/12/12 10:37:38;;;;;;;18.23;2.23;;;;;;;;;;5015411;28;20262;-84
2023/12/12 10:40:17;;;;;;;21.10;3.50;;;13.20;99.90;;;;;;5014828;28;20200;-86
2023/12/12 10:42:44;;;;;;;21.27;3.23;;;;;;;;;;5014184;28;20210;-84
2023/12/12 10:45:12;;;;;;;22.27;3.47;;;;;;;;;;5023383;28;20167;-84
2023/12/12 10:47:41;;;;;;;24.73;3.00;;;12.60;99.90;;;;;;5023057;28;20240;-84
2023/12/12 10:50:10;;;;;;;17.00;3.50;;;10.50;99.90;;;;;;5025567;28;20206;-87
2023/12/12 10:52:38;;;;;;;15.50;3.10;;;12.30;99.90;;;;;;5024619;28;20253;-86
2023/12/12 10:55:06;;;;;;;13.60;2.13;;;12.70;99.90;;;;;;5016484;28;20221;-86
2023/12/12 10:57:32;;;;;;;20.97;3.50;;;;;;;;;;4996508;28;20202;-85
2023/12/12 10:59:59;;;;;;;19.03;3.40;;;12.50;99.90;;;;;;4996233;28;20167;-85
2023/12/12 11:02:25;;;;;;;18.13;2.70;;;;;;;;;;5005771;28;20306;-86
2023/12/12 11:04:55;;;;;;;12.53;2.43;;;12.30;99.90;;;;;;5016509;28;20179;-88
2023/12/12 11:07:21;;;;;;;23.43;3.40;;;;;;;;;;5020397;28;20365;-86
2023/12/12 11:09:47;;;;;;;18.80;2.63;;;;;;;;;;5015938;28;20262;-84
2023/12/12 11:12:13;;;;;;;15.57;1.93;;;;;;;;;;5016632;28;20185;-84
2023/12/12 11:14:40;;;;;;;17.20;2.77;;;12.40;99.90;;;;;;5016780;28;20175;-85
2023/12/12 11:17:09;;;;;;;19.87;3.93;;;12.70;99.90;;;;;;5014580;28;20178;-86
2023/12/12 11:19:36;;;;;;;19.67;3.40;;;13.00;99.90;;;;;;5013824;28;20299;-85
2023/12/12 11:22:03;;;;;;;16.23;2.40;;;;;;;;;;5014322;28;20202;-87
2023/12/12 11:25:07;;;;;;;20.83;3.07;;;13.00;99.90;;;;;;5015741;28;20633;-90
2023/12/12 11:27:33;;;;;;;18.70;2.97;;;;;;;;;;5013812;28;20213;-84
2023/12/12 11:30:00;;;;;;;17.70;2.57;;;;;;;;;;5014901;28;20214;-84
2023/12/12 11:32:26;;;;;;;19.20;3.17;;;14.50;99.90;;;;;;5013384;28;20182;-86
2023/12/12 11:34:52;;;;;;;17.53;2.87;;;14.10;99.90;;;;;;5015066;28;20182;-84
2023/12/12 11:37:18;;;;;;;17.70;2.77;;;;;;;;;;5014187;28;20179;-83
2023/12/12 11:39:49;;;;;;;21.53;2.90;;;;;;;;;;5013342;28;20657;-79
2023/12/12 11:42:24;;;;;;;23.37;4.13;;;13.40;99.90;;;;;;5013361;28;20218;-81
2023/12/12 11:44:55;;;;;;;13.53;2.50;;;13.30;99.90;;;;;;5013700;28;20169;-79
2023/12/12 11:47:29;;;;;;;16.63;2.90;;;13.20;99.90;;;;;;5013828;28;20198;-81
2023/12/12 11:50:18;;;;;;;15.63;2.27;;;13.70;99.90;;;;;;5013828;28;20269;-80
2023/12/12 11:52:45;;;;;;;8.87;2.03;;;;;;;;;;5013689;28;20170;-79
2023/12/12 11:55:18;;;;;;;16.43;2.47;;;14.70;99.90;;;;;;5013499;28;20601;-79
2023/12/12 11:57:45;;;;;;;15.90;2.37;;;14.50;99.90;;;;;;5013367;28;20590;-80
2023/12/12 12:00:14;;;;;;;20.17;3.00;;;14.60;99.90;;;;;;5012106;28;20175;-79
2023/12/12 12:02:43;;;;;;;19.23;2.33;;;14.20;99.90;;;;;;5013831;28;20202;-79
2023/12/12 12:05:09;;;;;;;15.27;2.65;;;13.70;99.90;;;;;;5012230;28;20170;-79
2023/12/12 12:07:38;;;;;;;14.60;2.58;;;13.70;99.90;;;;;;5011224;28;20248;-79
2023/12/12 12:10:05;;;;;;;14.63;2.20;;;13.40;99.90;;;;;;5009860;28;20185;-79
2023/12/12 12:12:31;;;;;;;15.70;2.22;;;;;;;;;;5011234;28;20309;-77
2023/12/12 12:15:07;;;;;;;16.00;3.35;;;13.30;99.90;;;;;;5009979;28;20645;-80
2023/12/12 12:17:36;;;;;;;14.83;1.80;;;13.00;99.90;;;;;;5011294;28;20186;-80
2023/12/12 12:20:02;;;;;;;22.17;4.60;;;12.70;99.90;;;;;;5012357;28;20307;-80
2023/12/12 12:22:30;;;;;;;24.92;3.83;;;12.70;99.90;;;;;;5013064;28;20622;-81
2023/12/12 12:24:56;;;;;;;21.50;4.47;;;;;;;;;;5012961;28;20175;-80
2023/12/12 12:27:22;;;;;;;8.90;1.20;;;;;;;;;;5013055;28;20175;-81
2023/12/12 12:30:03;;;;;;;22.00;2.80;;;12.30;99.90;;;;;;5013100;28;20210;-81
2023/12/12 12:32:29;;;;;;;11.17;1.67;;;;;;;;;;5012370;28;20229;-80
2023/12/12 12:35:08;;;;;;;11.27;2.10;;;12.20;99.90;;;;;;5012581;28;20685;-82
2023/12/12 12:37:36;;;;;;;16.53;2.10;;;12.10;99.90;;;;;;5012890;28;20182;-82
2023/12/12 12:40:06;;;;;;;9.77;1.40;;;11.90;99.90;;;;;;5011676;28;20225;-82
2023/12/12 12:42:35;;;;;;;8.90;1.70;;;11.60;99.90;;;;;;5011193;28;20222;-79
2023/12/12 12:45:07;;;;;;;8.70;1.33;;;11.40;99.90;;;;;;5010529;28;20179;-80
2023/12/12 12:47:34;;;;;;;9.90;1.30;;;;;;;;;;5011721;28;20587;-79
2023/12/12 12:50:03;;;;;;;4.23;0.80;;;;;;;;;;5010627;28;20170;-80
2023/12/12 12:52:29;;;;;;;4.83;1.00;;;;;;;;;;5010565;28;20706;-80
2023/12/12 12:54:55;;;;;;;6.30;1.43;;;;;;;;;;5010447;28;20228;-81
2023/12/12 12:57:21;;;;;;;4.13;0.83;;;11.30;99.90;;;;;;5010754;28;20583;-79
2023/12/12 12:59:47;;;;;;;5.20;1.07;;;;;;;;;;5011046;28;20182;-82
2023/12/12 13:02:13;;;;;;;6.23;1.30;;;11.50;99.90;;;;;;5011989;28;20250;-84
2023/12/12 13:04:40;;;;;;;6.90;1.23;;;11.20;99.90;;;;;;5012494;28;20261;-80
2023/12/12 13:07:07;;;;;;;8.37;1.37;;;11.30;99.90;;;;;;5011970;28;20182;-82
2023/12/12 13:09:33;;;;;;;6.53;1.30;;;;;;;;;;5017511;28;20174;-84
2023/12/12 13:12:03;;;;;;;5.53;1.50;;;11.40;99.90;;;;;;5005675;28;20175;-83
2023/12/12 13:14:29;;;;;;;4.03;1.17;;;;;;;;;;5012342;28;20175;-81
2023/12/12 13:16:55;;;;;;;5.53;1.30;;;11.60;99.90;;;;;;5015970;28;20174;-81
2023/12/12 13:19:26;;;;;;;9.90;1.37;;;;;;;;;;5010596;28;20185;-83
2023/12/12 13:21:52;;;;;;;6.00;1.00;;;;;;;;;;5011896;28;20242;-82
2023/12/12 13:24:17;;;;;;;6.70;0.97;;;11.60;99.90;;;;;;5010419;28;20210;-81
2023/12/12 13:26:45;;;;;;;4.17;1.03;;;;;;;;;;5012562;28;20174;-85
2023/12/12 13:29:10;;;;;;;11.33;1.07;;;11.60;99.90;;;;;;5012684;28;20221;-87
2023/12/12 13:31:36;;;;;;;7.33;0.90;;;;;;;;;;5012439;28;20175;-85
2023/12/12 13:34:02;;;;;;;6.70;0.97;;;;;;;;;;5012404;28;20256;-89
2023/12/12 13:36:28;;;;;;;5.77;0.83;;;;;;;;;;5013574;28;20197;-91
2023/12/12 13:38:55;;;;;;;4.87;0.87;;;;;;;;;;5013325;28;20182;-91
2023/12/12 13:41:21;;;;;;;2.77;0.70;;;11.50;99.90;;;;;;5012320;28;20225;-93
2023/12/12 13:43:47;;;;;;;3.83;0.53;;;;;;;;;;5020870;28;20221;-92
2023/12/12 13:46:13;;;;;;;3.17;0.43;;;11.70;99.90;;;;;;5014363;28;20175;-89
2023/12/12 13:48:39;;;;;;;5.97;1.00;;;;;;;;;;5014364;28;20178;-88
2023/12/12 13:51:07;;;;;;;3.13;0.50;;;;;;;;;;5015038;28;20174;-92
2023/12/12 13:53:33;;;;;;;7.23;0.70;;;;;;;;;;5013321;28;20257;-91
2023/12/12 13:55:59;;;;;;;11.40;0.70;;;;;;;;;;5012450;28;20657;-88
2023/12/12 13:58:25;;;;;;;4.23;0.60;;;;;;;;;;5011736;28;20237;-86
2023/12/12 14:00:51;;;;;;;6.47;0.70;;;;;;;;;;5013018;28;20215;-91
2023/12/12 14:03:18;;;;;;;6.03;0.80;;;;;;;;;;5012164;28;20170;-87